Time;durP1;ratioP1;P1;durP2;ratioP2;P2;SDS_P1;SDS_P2;PMS_P1;PMS_P2;Temp;Humidity;BMP_temperature;BMP_pressure;BME280_temperature;BME280_humidity;BME280_pressure;Samples;Min_cycle;Max_cycle;Signal;HPM_P1;HPM_P2
2022/01/23 00:02:13;;;;;;;15.10;9.90;;;;;;;0.40;100.00;97088.59;5035846;28;20189;-79
2022/01/23 00:04:39;;;;;;;17.33;10.43;;;;;;;0.36;100.00;97083.63;5034226;28;20178;-78
2022/01/23 00:07:07;;;;;;;14.67;9.73;;;;;;;0.42;100.00;97079.16;5034539;28;20188;-79
2022/01/23 00:09:33;;;;;;;16.33;10.13;;;;;;;0.47;100.00;97076.47;5035553;28;20220;-78
2022/01/23 00:12:03;;;;;;;14.10;9.60;;;;;;;0.50;100.00;97086.56;5034421;28;20264;-79
2022/01/23 00:17:17;;;;;;;14.60;8.77;;;;;;;0.54;100.00;97083.88;5035307;28;20178;-80
2022/01/23 00:19:43;;;;;;;11.60;7.77;;;;;;;0.58;100.00;97076.94;5035551;28;20233;-79
2022/01/23 00:22:10;;;;;;;13.93;8.47;;;;;;;0.61;100.00;97074.28;5034835;28;20175;-78
2022/01/23 00:30:24;;;;;;;11.00;8.10;;;;;;;0.66;100.00;97072.41;5035035;28;20732;-78
2022/01/23 00:32:50;;;;;;;11.73;7.90;;;;;;;0.69;100.00;97066.38;5034601;28;20265;-79
2022/01/23 00:35:15;;;;;;;13.27;7.97;;;;;;;0.71;100.00;97070.56;5035098;28;20198;-79
2022/01/23 00:37:41;;;;;;;13.57;8.43;;;;;;;0.71;100.00;97072.28;5034631;28;20175;-80
2022/01/23 00:40:07;;;;;;;14.27;9.70;;;;;;;0.73;100.00;97070.50;5034473;28;20680;-81
2022/01/23 00:42:34;;;;;;;13.83;9.53;;;;;;;0.71;100.00;97075.69;5034357;28;20192;-79
2022/01/23 00:45:24;;;;;;;14.23;9.13;;;;;;;0.68;100.00;97075.75;5035242;28;20178;-79
2022/01/23 00:47:50;;;;;;;13.87;8.97;;;;;;;0.68;100.00;97075.75;5034904;28;20206;-80
2022/01/23 00:50:15;;;;;;;11.90;8.13;;;;;;;0.70;100.00;97079.09;5035058;28;20212;-80
2022/01/23 00:52:40;;;;;;;10.57;7.80;;;;;;;0.64;100.00;97073.38;5033961;28;20980;-79
2022/01/23 00:55:06;;;;;;;12.80;8.53;;;;;;;0.65;100.00;97072.47;5034629;28;20179;-79
2022/01/23 00:57:33;;;;;;;12.80;8.63;;;;;;;0.54;100.00;97083.06;5034824;28;20180;-79
2022/01/23 00:59:59;;;;;;;11.87;8.47;;;;;;;0.65;100.00;97075.88;5018538;28;20804;-79
2022/01/23 01:02:24;;;;;;;13.00;8.33;;;;;;;0.57;100.00;97080.38;5034113;28;20290;-79
2022/01/23 01:04:50;;;;;;;12.83;8.00;;;;;;;0.54;100.00;97077.94;5033958;28;20212;-79
2022/01/23 01:07:15;;;;;;;13.40;8.13;;;;;;;0.53;100.00;97086.47;5033489;28;20258;-78
2022/01/23 01:09:43;;;;;;;13.77;8.77;;;;;;;0.60;100.00;97095.63;5034113;28;20221;-79
2022/01/23 01:12:16;;;;;;;12.93;8.63;;;;;;;0.49;100.00;97080.63;5034839;28;20167;-79
2022/01/23 01:35:53;;;;;;;18.90;12.63;;;;;;;0.46;100.00;97078.19;5033466;28;20170;-78
2022/01/23 01:38:19;;;;;;;20.97;12.87;;;;;;;0.46;100.00;97075.63;5033212;28;20556;-78
2022/01/23 01:40:44;;;;;;;21.93;12.37;;;;;;;0.49;100.00;97079.81;5016902;28;20197;-79
2022/01/23 01:43:10;;;;;;;20.90;13.50;;;;;;;0.50;100.00;97073.78;5016486;28;20669;-79
2022/01/23 01:45:36;;;;;;;21.97;12.83;;;;;;;0.44;100.00;97072.28;5017349;28;20236;-79
2022/01/23 01:48:03;;;;;;;22.20;12.67;;;;;;;0.50;100.00;97082.28;5034459;28;20210;-78
2022/01/23 01:50:30;;;;;;;20.90;12.47;;;;;;;0.62;100.00;97086.22;5035530;28;20308;-79
2022/01/23 01:52:55;;;;;;;18.57;11.20;;;;;;;0.42;100.00;97083.44;5032725;28;20167;-78
2022/01/23 01:55:28;;;;;;;21.70;12.77;;;;;;;0.38;100.00;97084.41;5033529;28;20519;-77
2022/01/23 01:58:01;;;;;;;27.03;14.87;;;;;;;0.36;100.00;97094.69;5017414;28;20222;-80
2022/01/23 02:08:28;;;;;;;25.37;14.93;;;;;;;0.40;100.00;97085.19;5033321;28;20268;-79
2022/01/23 02:51:51;;;;;;;14.00;9.30;;;;;;;0.76;100.00;97037.16;5032242;28;20263;-79
2022/01/23 02:57:04;;;;;;;17.77;11.17;;;;;;;0.76;100.00;97032.03;5032668;28;20189;-80
2022/01/23 02:59:32;;;;;;;14.17;10.07;;;;;;;0.78;100.00;97031.09;5016730;28;20237;-79
2022/01/23 03:02:46;;;;;;;16.10;10.80;;;;;;;0.63;100.00;97041.03;5000087;28;20556;-79
2022/01/23 03:04:51;;;;;;;16.50;10.87;;;;;;;0.58;100.00;97033.50;5032922;28;20197;-78
2022/01/23 03:07:37;;;;;;;13.77;9.90;;;;;;;0.76;100.00;97032.88;5032855;28;20186;-79
2022/01/23 03:10:08;;;;;;;13.33;9.70;;;;;;;0.70;100.00;97029.69;5033535;28;20182;-79
2022/01/23 03:31:21;;;;;;;18.73;10.53;;;;;;;0.64;100.00;97058.84;5036744;28;20191;-81
2022/01/23 03:33:47;;;;;;;16.13;9.97;;;;;;;0.58;100.00;97056.50;5036822;28;20177;-80
2022/01/23 03:36:12;;;;;;;17.67;11.07;;;;;;;0.59;100.00;97065.00;5019796;28;20182;-79
2022/01/23 03:38:41;;;;;;;17.03;10.30;;;;;;;0.61;100.00;97076.84;5035813;28;20689;-79
2022/01/23 03:41:06;;;;;;;17.97;12.00;;;;;;;0.83;100.00;97080.38;5018961;28;20183;-79
2022/01/23 03:43:35;;;;;;;15.77;10.50;;;;;;;0.84;100.00;97065.88;5018761;28;20200;-79
2022/01/23 03:46:21;;;;;;;14.37;10.30;;;;;;;0.87;100.00;97068.31;5019751;28;20190;-79
2022/01/23 03:51:14;;;;;;;15.47;11.20;;;;;;;0.88;100.00;97080.19;5035223;28;20197;-80
2022/01/23 03:53:40;;;;;;;18.00;11.87;;;;;;;0.87;100.00;97075.16;5035608;28;20276;-80
2022/01/23 03:56:06;;;;;;;16.70;10.37;;;;;;;0.90;100.00;97070.78;5019345;28;20288;-79
2022/01/23 03:58:31;;;;;;;16.67;10.90;;;;;;;0.90;100.00;97075.91;5035760;28;20205;-79
2022/01/23 04:00:57;;;;;;;16.03;11.13;;;;;;;0.91;100.00;97081.84;5035652;28;20178;-78
2022/01/23 04:03:22;;;;;;;16.80;11.17;;;;;;;0.92;100.00;97080.97;5018880;28;20194;-79
2022/01/23 04:05:48;;;;;;;16.93;10.90;;;;;;;0.90;100.00;97080.19;5035572;28;20186;-79
2022/01/23 04:08:15;;;;;;;15.13;11.27;;;;;;;0.91;100.00;97076.72;5035365;28;20207;-80
2022/01/23 04:10:41;;;;;;;16.43;11.27;;;;;;;0.92;100.00;97079.22;5019394;28;20555;-80
2022/01/23 04:13:21;;;;;;;18.77;11.07;;;;;;;0.91;100.00;97082.69;5034744;28;20186;-78
2022/01/23 04:16:05;;;;;;;13.73;9.70;;;;;;;0.91;100.00;97084.41;5020534;28;20185;-78
2022/01/23 04:45:27;;;;;;;20.80;13.33;;;;;;;0.78;100.00;97060.94;5035458;28;20240;-79
2022/01/23 05:01:15;;;;;;;19.40;12.83;;;;;;;1.00;100.00;97067.03;5034132;28;20206;-79
2022/01/23 05:06:28;;;;;;;25.37;16.60;;;;;;;0.98;100.00;97066.25;5035530;28;20272;-79
2022/01/23 05:08:53;;;;;;;21.47;14.53;;;;;;;0.96;100.00;97068.00;5017979;28;20218;-79
2022/01/23 05:11:19;;;;;;;19.03;13.67;;;;;;;0.99;100.00;97075.59;5033811;28;20249;-79
2022/01/23 05:13:44;;;;;;;20.90;13.67;;;;;;;1.00;100.00;97063.63;5017658;28;20593;-78
2022/01/23 05:16:11;;;;;;;19.00;12.13;;;;;;;0.97;100.00;97067.13;5017752;28;20570;-79
2022/01/23 05:18:37;;;;;;;19.33;12.13;;;;;;;0.79;100.00;97062.59;5033371;28;20717;-80
2022/01/23 05:21:21;;;;;;;21.03;14.93;;;;;;;0.76;100.00;97068.66;5033702;28;20261;-80
2022/01/23 05:23:46;;;;;;;21.20;13.43;;;;;;;0.75;100.00;97064.44;5019751;28;20244;-79
2022/01/23 05:26:12;;;;;;;18.30;12.57;;;;;;;0.76;100.00;97068.66;5033811;28;20650;-79
2022/01/23 05:28:37;;;;;;;20.63;13.40;;;;;;;0.76;100.00;97073.78;5017052;28;20210;-79
2022/01/23 05:31:03;;;;;;;16.23;11.97;;;;;;;0.75;100.00;97076.41;5017257;28;20193;-78
2022/01/23 05:33:28;;;;;;;20.73;13.47;;;;;;;0.72;100.00;97077.34;5032517;28;20643;-80
2022/01/23 05:35:53;;;;;;;22.50;15.33;;;;;;;0.95;100.00;97078.28;5016698;28;20256;-81
2022/01/23 05:38:18;;;;;;;33.60;21.53;;;;;;;1.02;100.00;97082.31;5034578;28;20198;-79
2022/01/23 05:40:44;;;;;;;33.57;20.43;;;;;;;1.03;100.00;97084.81;5016821;28;20179;-79
2022/01/23 05:43:10;;;;;;;29.83;17.50;;;;;;;1.02;100.00;97092.53;5015805;28;20597;-79
2022/01/23 05:45:40;;;;;;;28.83;17.00;;;;;;;1.04;100.00;97095.88;5032830;28;20549;-80
2022/01/23 05:48:06;;;;;;;22.87;15.27;;;;;;;1.03;100.00;97089.94;5017026;28;20309;-80
2022/01/23 05:50:31;;;;;;;19.63;12.17;;;;;;;1.04;100.00;97093.31;5017129;28;20222;-80
2022/01/23 05:52:56;;;;;;;19.47;12.90;;;;;;;1.04;100.00;97083.09;5032768;28;20265;-79
2022/01/23 05:55:22;;;;;;;17.90;13.67;;;;;;;1.04;100.00;97078.81;5032572;28;20187;-78
2022/01/23 05:57:47;;;;;;;22.27;13.43;;;;;;;1.01;100.00;97094.28;5033360;28;20175;-80
2022/01/23 06:00:16;;;;;;;20.73;14.47;;;;;;;1.03;100.00;97099.31;5032809;28;20736;-78
2022/01/23 06:02:41;;;;;;;20.40;13.93;;;;;;;1.03;100.00;97092.50;5033835;28;20194;-78
2022/01/23 06:05:07;;;;;;;19.37;13.47;;;;;;;1.03;100.00;97091.66;5032896;28;20631;-79
2022/01/23 06:07:32;;;;;;;19.27;13.07;;;;;;;1.03;100.00;97097.59;5032933;28;20210;-79
2022/01/23 06:09:57;;;;;;;23.33;13.77;;;;;;;1.02;100.00;97097.66;5016767;28;20208;-79
2022/01/23 06:12:22;;;;;;;21.20;13.97;;;;;;;0.95;100.00;97098.75;5016484;28;20292;-79
2022/01/23 06:14:48;;;;;;;21.43;13.60;;;;;;;0.98;100.00;97108.91;5033172;28;20191;-78
2022/01/23 06:17:13;;;;;;;23.27;14.23;;;;;;;1.00;100.00;97112.22;5032785;28;20256;-79
2022/01/23 06:19:39;;;;;;;23.20;13.97;;;;;;;1.00;100.00;97113.06;5016419;28;20194;-80
2022/01/23 06:22:04;;;;;;;24.20;13.80;;;;;;;1.01;100.00;97106.22;5015788;28;20178;-79
2022/01/23 06:24:31;;;;;;;24.00;14.73;;;;;;;1.01;100.00;97108.78;5016819;28;20185;-79
2022/01/23 06:26:59;;;;;;;20.07;12.73;;;;;;;1.00;100.00;97107.94;5032776;28;20565;-79
2022/01/23 06:29:25;;;;;;;24.93;14.77;;;;;;;0.97;100.00;97112.31;5016226;28;20252;-79
2022/01/23 06:31:53;;;;;;;21.43;14.70;;;;;;;0.97;100.00;97115.75;5032395;28;20689;-78
2022/01/23 06:34:19;;;;;;;20.57;13.50;;;;;;;0.97;100.00;97120.84;5017408;28;20170;-79
2022/01/23 06:36:45;;;;;;;21.40;12.80;;;;;;;0.93;100.00;97121.00;5032912;28;20181;-80
2022/01/23 06:39:11;;;;;;;21.93;13.23;;;;;;;0.99;100.00;97125.91;5032931;28;20213;-78
2022/01/23 06:41:37;;;;;;;21.43;13.97;;;;;;;1.02;100.00;97121.53;5031549;28;20178;-77
2022/01/23 06:44:03;;;;;;;22.40;13.40;;;;;;;1.03;100.00;97117.25;5033176;28;20181;-79
2022/01/23 06:46:29;;;;;;;22.90;14.43;;;;;;;1.03;100.00;97118.06;5016802;28;20731;-79
2022/01/23 06:48:54;;;;;;;23.90;14.00;;;;;;;1.04;100.00;97117.19;5016254;28;20217;-81
2022/01/23 06:51:19;;;;;;;24.63;15.03;;;;;;;1.02;100.00;97125.81;5032074;28;20531;-78
2022/01/23 06:53:45;;;;;;;24.53;14.23;;;;;;;1.01;100.00;97124.97;5032137;28;20178;-79
2022/01/23 06:56:10;;;;;;;22.43;14.97;;;;;;;1.01;100.00;97139.47;5015678;28;20182;-78
2022/01/23 06:58:35;;;;;;;28.07;16.97;;;;;;;1.01;100.00;97136.91;5031585;28;20208;-81
2022/01/23 07:01:01;;;;;;;27.40;17.47;;;;;;;0.99;100.00;97138.72;5017880;28;20171;-78
2022/01/23 07:03:27;;;;;;;30.27;17.80;;;;;;;1.01;100.00;97139.47;5019015;28;20592;-78
2022/01/23 07:05:52;;;;;;;24.70;15.90;;;;;;;0.92;100.00;97138.06;5036363;28;20174;-78
2022/01/23 07:08:18;;;;;;;27.00;15.13;;;;;;;1.02;100.00;97136.88;5035954;28;20210;-79
2022/01/23 07:10:43;;;;;;;25.57;15.37;;;;;;;0.83;100.00;97140.91;5036166;28;20634;-79
2022/01/23 07:13:09;;;;;;;23.53;15.40;;;;;;;0.80;100.00;97146.16;5035278;28;20178;-79
2022/01/23 07:15:34;;;;;;;21.97;14.40;;;;;;;0.78;100.00;97148.72;5035612;28;20186;-81
2022/01/23 07:17:59;;;;;;;23.57;14.40;;;;;;;0.75;100.00;97153.94;5019242;28;20186;-79
2022/01/23 07:20:24;;;;;;;27.13;16.50;;;;;;;0.76;100.00;97155.63;5019777;28;20218;-80
2022/01/23 07:22:50;;;;;;;29.80;17.10;;;;;;;0.76;100.00;97152.22;5035044;28;20267;-79
2022/01/23 07:25:15;;;;;;;25.90;16.67;;;;;;;0.77;100.00;97164.13;5020253;28;20178;-80
2022/01/23 07:27:47;;;;;;;23.80;16.10;;;;;;;0.77;100.00;97156.44;5018613;28;20206;-79
2022/01/23 07:30:26;;;;;;;21.00;14.80;;;;;;;0.80;100.00;97161.50;5036022;28;20174;-79
2022/01/23 07:32:52;;;;;;;25.50;16.43;;;;;;;0.80;100.00;97169.16;5034795;28;20631;-79
2022/01/23 07:35:17;;;;;;;25.80;16.00;;;;;;;0.81;100.00;97155.47;5034066;28;20185;-79
2022/01/23 07:37:42;;;;;;;28.60;16.70;;;;;;;0.81;100.00;97158.03;5035257;28;20185;-80
2022/01/23 07:40:08;;;;;;;27.10;17.47;;;;;;;0.84;100.00;97163.03;5024597;28;20240;-79
2022/01/23 07:42:34;;;;;;;62.67;38.87;;;;;;;0.92;100.00;97161.09;5017850;28;20182;-79
2022/01/23 07:45:01;;;;;;;55.13;35.33;;;;;;;0.91;100.00;97164.53;5034817;28;20196;-80
2022/01/23 07:47:26;;;;;;;40.73;26.07;;;;;;;0.93;100.00;97164.47;5034473;28;20240;-79
2022/01/23 07:49:52;;;;;;;41.07;25.93;;;;;;;0.95;100.00;97165.25;5017643;28;20835;-80
2022/01/23 07:52:17;;;;;;;35.07;24.03;;;;;;;0.95;100.00;97166.09;5017135;28;20202;-80
2022/01/23 07:54:45;;;;;;;34.53;23.43;;;;;;;0.98;100.00;97165.19;5027719;28;20190;-79
2022/01/23 07:57:10;;;;;;;36.40;22.27;;;;;;;1.00;100.00;97173.63;5029073;28;20171;-79
2022/01/23 07:59:35;;;;;;;31.27;21.60;;;;;;;1.02;100.00;97180.34;5012927;28;20275;-80
2022/01/23 08:02:04;;;;;;;31.30;20.00;;;;;;;1.07;100.00;97175.09;5013241;28;20180;-79
2022/01/23 08:04:29;;;;;;;33.57;20.80;;;;;;;1.05;100.00;97185.38;5013353;28;20261;-78
2022/01/23 08:07:20;;;;;;;30.23;18.67;;;;;;;1.08;100.00;97179.34;5013801;28;20258;-80
2022/01/23 08:09:45;;;;;;;33.20;22.83;;;;;;;1.08;100.00;97187.00;5014102;28;20727;-80
2022/01/23 08:12:11;;;;;;;37.13;22.37;;;;;;;1.05;100.00;97193.03;5013134;28;20219;-79
2022/01/23 08:14:36;;;;;;;31.03;20.53;;;;;;;1.05;100.00;97193.03;5013674;28;20214;-79
2022/01/23 08:17:01;;;;;;;30.43;20.40;;;;;;;1.09;100.00;97192.06;5013568;28;20237;-81
2022/01/23 08:19:26;;;;;;;29.97;20.07;;;;;;;1.14;100.00;97191.91;4997329;28;20195;-80
2022/01/23 08:21:52;;;;;;;32.13;20.37;;;;;;;1.17;100.00;97196.94;5013120;28;20213;-80
2022/01/23 08:24:17;;;;;;;34.33;21.73;;;;;;;1.10;100.00;97191.19;5021949;28;20576;-80
2022/01/23 08:26:42;;;;;;;30.40;19.33;;;;;;;1.11;100.00;97189.47;5014102;28;20183;-79
2022/01/23 08:29:09;;;;;;;33.60;20.53;;;;;;;1.13;100.00;97195.34;5013018;28;20218;-80
2022/01/23 08:31:34;;;;;;;27.67;17.13;;;;;;;1.04;100.00;97190.53;5013430;28;20182;-79
2022/01/23 08:34:00;;;;;;;25.40;15.33;;;;;;;1.00;100.00;97196.66;5013386;28;20289;-80
2022/01/23 08:36:26;;;;;;;25.83;15.50;;;;;;;1.04;100.00;97195.66;5017539;28;20237;-80
2022/01/23 08:38:51;;;;;;;25.63;16.03;;;;;;;1.03;100.00;97199.94;5033422;28;20202;-79
2022/01/23 08:44:01;;;;;;;35.30;22.30;;;;;;;1.10;100.00;97195.47;5033399;28;20174;-79
2022/01/23 08:46:26;;;;;;;30.17;18.97;;;;;;;1.16;100.00;97191.88;5032267;28;20178;-80
2022/01/23 08:48:51;;;;;;;28.27;17.00;;;;;;;1.22;100.00;97199.34;5032332;28;20206;-78
2022/01/23 08:51:17;;;;;;;26.93;16.50;;;;;;;1.21;100.00;97193.38;5032163;28;20191;-79
2022/01/23 08:53:42;;;;;;;26.70;15.83;;;;;;;1.22;100.00;97205.28;5034500;28;20185;-79
2022/01/23 08:56:07;;;;;;;30.57;17.57;;;;;;;1.26;100.00;97203.47;5031951;28;20193;-79
2022/01/23 08:58:33;;;;;;;28.53;16.87;;;;;;;1.30;100.00;97198.19;5015793;28;20202;-79
2022/01/23 09:00:58;;;;;;;27.13;16.87;;;;;;;1.36;100.00;97195.44;5032659;28;20201;-79
2022/01/23 09:03:23;;;;;;;29.50;17.53;;;;;;;1.39;100.00;97203.00;5031011;28;20185;-79
2022/01/23 09:05:49;;;;;;;23.43;15.20;;;;;;;1.49;100.00;97197.56;5032364;28;20187;-79
2022/01/23 09:08:14;;;;;;;25.87;16.33;;;;;;;1.55;100.00;97192.25;5014146;28;20206;-78
2022/01/23 09:10:42;;;;;;;27.60;16.13;;;;;;;1.47;100.00;97196.81;5032585;28;20553;-79
2022/01/23 09:13:15;;;;;;;22.97;15.47;;;;;;;1.46;100.00;97192.56;5016531;28;20200;-80
2022/01/23 09:15:40;;;;;;;23.93;15.63;;;;;;;1.61;100.00;97190.34;5030193;28;20179;-81
2022/01/23 09:18:06;;;;;;;25.30;16.00;;;;;;;1.72;100.00;97178.88;5012899;28;20198;-80
2022/01/23 09:20:31;;;;;;;23.77;16.33;;;;;;;1.68;100.00;97183.28;5013110;28;20179;-79
2022/01/23 09:22:57;;;;;;;25.10;15.83;;;;;;;1.76;100.00;97186.38;5011237;28;20199;-79
2022/01/23 09:25:22;;;;;;;23.10;15.40;;;;;;;1.80;100.00;97187.97;5012379;28;20187;-79
2022/01/23 09:27:48;;;;;;;31.87;19.37;;;;;;;1.80;100.00;97193.09;5028660;28;20645;-78
2022/01/23 09:30:21;;;;;;;68.47;43.27;;;;;;;1.82;100.00;97193.84;4994493;28;20179;-79
2022/01/23 09:32:47;;;;;;;28.70;17.30;;;;;;;1.63;100.00;97196.22;5011780;28;20179;-79
2022/01/23 09:35:14;;;;;;;25.13;17.23;;;;;;;1.81;100.00;97199.03;5012923;28;20186;-81
2022/01/23 09:37:41;;;;;;;21.47;13.20;;;;;;;1.87;100.00;97191.16;5029860;28;20175;-78
2022/01/23 09:40:08;;;;;;;21.37;14.50;;;;;;;1.90;100.00;97198.72;5022858;28;20186;-79
2022/01/23 09:42:36;;;;;;;22.93;14.67;;;;;;;1.95;100.00;97207.91;5023996;28;20741;-80
2022/01/23 09:45:05;;;;;;;23.23;16.37;;;;;;;1.97;100.00;97201.00;5013855;28;20542;-81
2022/01/23 09:47:31;;;;;;;21.83;15.30;;;;;;;1.94;100.00;97188.31;5012617;28;20178;-80
2022/01/23 09:50:00;;;;;;;23.80;16.40;;;;;;;1.88;100.00;97191.09;5011688;28;20741;-79
2022/01/23 09:52:33;;;;;;;24.53;15.37;;;;;;;1.88;100.00;97191.09;5011379;28;20642;-80
2022/01/23 09:55:05;;;;;;;19.10;14.23;;;;;;;1.93;100.00;97185.78;5012202;28;20183;-78
2022/01/23 09:57:32;;;;;;;22.57;13.23;;;;;;;2.03;100.00;97178.59;5012262;28;20179;-79
2022/01/23 10:00:00;;;;;;;19.90;13.10;;;;;;;2.07;100.00;97175.88;5011986;28;20199;-79
2022/01/23 10:02:26;;;;;;;21.70;13.43;;;;;;;2.04;100.00;97181.13;5011532;28;20539;-79
2022/01/23 10:04:52;;;;;;;20.20;13.77;;;;;;;2.01;100.00;97180.38;5011469;28;20261;-80
2022/01/23 10:07:18;;;;;;;21.47;13.70;;;;;;;2.05;100.00;97181.97;5028364;28;20710;-79
2022/01/23 10:09:43;;;;;;;18.77;12.43;;;;;;;2.18;100.00;97184.00;5011697;28;20322;-79
2022/01/23 10:12:11;;;;;;;22.63;13.00;;;;;;;2.25;100.00;97182.88;5010825;28;20262;-79
2022/01/23 10:14:37;;;;;;;21.00;12.10;;;;;;;2.30;99.53;97184.44;5027820;28;20663;-80
2022/01/23 10:17:05;;;;;;;19.73;12.93;;;;;;;2.31;100.00;97184.41;5011887;28;20254;-79
2022/01/23 10:19:31;;;;;;;23.30;13.03;;;;;;;2.36;99.61;97184.22;5012302;28;20281;-79
2022/01/23 10:21:57;;;;;;;22.67;12.93;;;;;;;2.36;100.00;97181.66;4995323;28;20249;-81
2022/01/23 10:24:22;;;;;;;24.00;15.13;;;;;;;2.33;99.02;97189.47;5012415;28;20222;-80
2022/01/23 10:26:53;;;;;;;20.20;15.00;;;;;;;2.32;98.94;97191.19;5012426;28;20175;-78
2022/01/23 10:29:21;;;;;;;23.87;13.47;;;;;;;2.27;99.07;97188.78;5010864;28;20299;-80
2022/01/23 10:32:04;;;;;;;24.73;14.97;;;;;;;2.28;99.75;97194.75;5027872;28;20184;-80
2022/01/23 10:34:43;;;;;;;17.97;12.80;;;;;;;2.43;99.10;97189.06;5028830;28;20178;-79
2022/01/23 10:37:09;;;;;;;21.23;13.27;;;;;;;2.43;99.08;97190.78;5015786;28;20250;-80
2022/01/23 10:39:42;;;;;;;22.00;13.83;;;;;;;2.52;98.83;97188.72;5016119;28;20713;-78
2022/01/23 10:42:46;;;;;;;18.03;12.87;;;;;;;2.61;98.64;97194.38;5015799;28;20186;-80
2022/01/23 10:48:35;;;;;;;19.80;13.70;;;;;;;2.76;97.87;97188.66;5017392;28;20257;-80
2022/01/23 10:51:19;;;;;;;19.87;13.97;;;;;;;2.52;98.32;97175.88;5016176;28;20186;-79
2022/01/23 10:54:15;;;;;;;19.63;14.37;;;;;;;2.72;97.95;97180.25;5017233;28;20669;-80
2022/01/23 10:56:49;;;;;;;33.50;28.17;;;;;;;2.75;97.68;97181.88;5016443;28;20176;-79
2022/01/23 10:59:15;;;;;;;16.97;11.93;;;;;;;2.87;96.15;97188.25;5032409;28;20274;-79
2022/01/23 11:01:59;;;;;;;14.57;10.70;;;;;;;3.07;95.32;97183.97;5016342;28;20175;-79
2022/01/23 11:04:24;;;;;;;17.60;11.47;;;;;;;3.04;94.96;97181.53;5016618;28;20182;-79
2022/01/23 11:06:53;;;;;;;19.13;11.83;;;;;;;3.20;94.72;97186.91;5016353;28;20175;-81
2022/01/23 11:09:19;;;;;;;17.33;11.40;;;;;;;3.18;93.30;97187.84;5017247;28;20207;-79
2022/01/23 11:11:49;;;;;;;17.77;12.77;;;;;;;3.21;94.54;97186.00;5015775;28;20179;-79
2022/01/23 11:19:46;;;;;;;29.67;21.60;;;;;;;3.12;94.32;97182.06;5016971;28;20204;-80
2022/01/23 11:22:16;;;;;;;16.37;11.70;;;;;;;3.23;92.40;97181.63;5015563;28;20268;-79
2022/01/23 11:24:44;;;;;;;16.73;11.67;;;;;;;3.29;93.13;97170.28;5016047;28;20179;-80
2022/01/23 11:27:10;;;;;;;16.10;11.50;;;;;;;3.38;92.95;97175.03;5015752;28;20633;-80
2022/01/23 11:29:36;;;;;;;16.57;10.97;;;;;;;3.48;91.94;97163.47;5014189;28;20202;-80
2022/01/23 11:32:01;;;;;;;19.23;11.30;;;;;;;3.53;92.56;97168.41;4999139;28;20175;-80
2022/01/23 11:34:28;;;;;;;15.67;11.43;;;;;;;3.36;91.85;97172.53;5015533;28;20253;-80
2022/01/23 11:36:54;;;;;;;17.20;11.43;;;;;;;3.14;92.10;97171.72;5015091;28;20217;-79
2022/01/23 11:39:35;;;;;;;13.97;10.93;;;;;;;3.13;91.98;97170.91;5015509;28;20187;-79
2022/01/23 11:50:45;;;;;;;18.00;12.50;;;;;;;3.15;91.32;97163.13;5016067;28;20229;-80
2022/01/23 11:56:26;;;;;;;17.97;11.47;;;;;;;3.04;91.56;97149.91;5017208;28;20730;-79
2022/01/23 11:59:12;;;;;;;16.97;11.97;;;;;;;2.98;92.37;97143.28;5032395;28;20249;-79
2022/01/23 12:01:39;;;;;;;16.97;10.17;;;;;;;2.92;90.88;97141.00;5033287;28;20175;-80
2022/01/23 12:04:20;;;;;;;16.17;11.33;;;;;;;2.91;90.74;97136.72;5033111;28;20263;-79
2022/01/23 12:07:11;;;;;;;16.23;10.93;;;;;;;3.15;91.12;97136.63;5017495;28;20175;-79
2022/01/23 12:09:37;;;;;;;14.93;9.97;;;;;;;3.06;90.49;97138.66;5033972;28;20246;-80
2022/01/23 12:12:22;;;;;;;13.27;9.83;;;;;;;3.11;89.20;97146.19;5017584;28;20218;-80
2022/01/23 12:17:18;;;;;;;16.13;11.07;;;;;;;3.16;90.08;97143.44;5016965;28;20171;-81
2022/01/23 12:19:49;;;;;;;15.00;10.53;;;;;;;3.28;89.24;97140.38;5002027;28;20287;-85
2022/01/23 12:22:45;;;;;;;13.57;9.07;;;;;;;3.18;88.58;97142.50;5035369;28;20179;-80
2022/01/23 12:25:19;;;;;;;17.30;11.27;;;;;;;3.22;89.46;97144.00;5024092;28;20207;-79
2022/01/23 12:27:44;;;;;;;18.60;11.77;;;;;;;3.29;90.40;97134.34;5018180;28;20226;-80
2022/01/23 12:30:12;;;;;;;18.80;11.57;;;;;;;3.31;89.76;97127.38;5017923;28;20207;-80
2022/01/23 12:32:37;;;;;;;15.93;10.63;;;;;;;3.28;90.17;97127.53;5012985;28;20187;-80
2022/01/23 12:35:05;;;;;;;13.47;10.07;;;;;;;3.32;89.56;97123.91;5020139;28;20256;-79
2022/01/23 12:37:56;;;;;;;15.07;10.07;;;;;;;3.34;89.72;97124.69;5015313;28;20175;-80
2022/01/23 12:40:28;;;;;;;17.00;11.67;;;;;;;3.17;90.32;97133.09;5031539;28;20217;-82
2022/01/23 12:43:17;;;;;;;13.53;9.00;;;;;;;3.37;88.90;97119.44;5031516;28;20188;-80
2022/01/23 12:45:54;;;;;;;13.03;8.57;;;;;;;3.09;87.10;97128.31;5014777;28;20187;-80
2022/01/23 12:48:26;;;;;;;11.90;8.57;;;;;;;3.08;86.22;97125.78;5048642;28;20288;-79
2022/01/23 12:51:13;;;;;;;11.93;7.63;;;;;;;3.01;86.45;97124.38;5048117;28;20178;-81
2022/01/23 12:53:48;;;;;;;12.60;8.10;;;;;;;2.99;86.73;97126.97;5049281;28;20185;-80
2022/01/23 12:56:16;;;;;;;13.43;9.10;;;;;;;3.00;86.44;97120.94;5049341;28;20243;-80
2022/01/23 12:58:48;;;;;;;15.03;9.90;;;;;;;2.96;87.52;97121.16;5031764;28;20567;-81
2022/01/23 13:01:17;;;;;;;13.90;9.37;;;;;;;2.95;87.47;97120.31;5031491;28;20201;-81
2022/01/23 13:03:57;;;;;;;12.23;9.27;;;;;;;3.05;88.18;97113.91;5032148;28;20184;-80
2022/01/23 13:06:29;;;;;;;13.33;9.60;;;;;;;3.13;88.38;97111.84;5032886;28;20194;-80
2022/01/23 13:09:22;;;;;;;12.70;8.37;;;;;;;3.24;86.71;97110.56;5031271;28;20226;-79
2022/01/23 13:14:45;;;;;;;11.27;7.87;;;;;;;3.26;84.17;97111.34;5031810;28;20654;-79
2022/01/23 13:17:27;;;;;;;11.90;8.43;;;;;;;3.01;82.63;97112.38;5032712;28;20174;-80
2022/01/23 13:29:35;;;;;;;6.77;5.23;;;;;;;2.99;77.86;97095.34;5032142;28;20701;-81
2022/01/23 13:30:53;;;;;;;8.30;5.60;;;;;;;2.98;79.24;97109.09;5025029;28;20655;-82
2022/01/23 13:33:23;;;;;;;7.53;4.93;;;;;;;2.96;80.10;97098.91;5034494;28;20175;-81
2022/01/23 13:35:52;;;;;;;8.93;6.00;;;;;;;2.88;80.39;97100.09;5033041;28;20178;-82
2022/01/23 13:38:18;;;;;;;7.47;5.13;;;;;;;3.04;79.80;97084.00;5031650;28;20599;-81
2022/01/23 13:40:45;;;;;;;5.63;4.77;;;;;;;3.16;79.93;97099.78;5015124;28;20183;-81
2022/01/23 13:59:32;;;;;;;5.37;4.67;;;;;;;3.05;74.97;97074.56;5032736;28;20702;-80
2022/01/23 14:04:37;;;;;;;6.80;5.00;;;;;;;2.80;73.99;97079.88;5031493;28;20184;-80
2022/01/23 14:07:02;;;;;;;7.73;4.60;;;;;;;2.90;75.17;97080.34;5031661;28;20600;-80
2022/01/23 14:09:28;;;;;;;7.90;5.10;;;;;;;2.97;74.73;97068.94;5031251;28;20218;-80
2022/01/23 14:11:54;;;;;;;7.20;5.30;;;;;;;2.99;74.88;97079.97;5032039;28;20198;-79
2022/01/23 14:14:24;;;;;;;9.23;6.63;;;;;;;2.81;74.33;97090.06;5031529;28;20270;-80
2022/01/23 14:16:52;;;;;;;6.97;5.00;;;;;;;2.94;75.51;97090.44;5031537;28;20176;-79
2022/01/23 14:19:56;;;;;;;7.07;4.83;;;;;;;2.82;73.98;97090.91;5048313;28;20333;-85
2022/01/23 14:22:33;;;;;;;7.50;5.53;;;;;;;2.79;74.98;97093.63;5031113;28;20192;-80
2022/01/23 14:25:13;;;;;;;7.07;5.23;;;;;;;2.69;75.75;97098.28;5031229;28;20212;-80
2022/01/23 14:27:40;;;;;;;6.37;4.83;;;;;;;2.63;74.59;97092.56;5030080;28;20646;-80
2022/01/23 14:30:13;;;;;;;6.43;4.80;;;;;;;2.56;74.32;97091.97;5014982;28;20185;-79
2022/01/23 14:32:44;;;;;;;6.97;4.50;;;;;;;2.70;74.17;97089.69;5030766;28;20174;-80
2022/01/23 14:35:11;;;;;;;6.03;4.87;;;;;;;2.69;75.10;97092.31;5031116;28;20205;-79
2022/01/23 14:37:37;;;;;;;6.03;4.27;;;;;;;2.68;74.46;97085.53;5030538;28;20182;-79
2022/01/23 14:40:24;;;;;;;5.10;4.13;;;;;;;2.63;75.81;97084.88;5030989;28;20629;-79
2022/01/23 14:43:07;;;;;;;7.03;4.20;;;;;;;2.66;74.45;97082.19;5030898;28;20265;-80
2022/01/23 14:45:38;;;;;;;5.23;3.87;;;;;;;2.78;75.70;97091.94;5030833;28;20174;-81
2022/01/23 14:48:05;;;;;;;5.90;4.80;;;;;;;2.69;75.66;97100.84;5030564;28;20210;-79
2022/01/23 14:50:33;;;;;;;5.60;4.27;;;;;;;2.76;75.22;97096.31;5031037;28;20179;-79
2022/01/23 14:53:05;;;;;;;6.83;4.50;;;;;;;2.72;74.15;97098.16;5030529;28;20601;-79